createdAt,value
2022-10-09T00:00:24.993Z,13
2022-10-09T00:01:24.985Z,12
2022-10-09T00:02:25.098Z,14
2022-10-09T00:03:24.988Z,13
2022-10-09T00:04:24.979Z,13
2022-10-09T00:05:25.073Z,13
2022-10-09T00:06:25.005Z,14
2022-10-09T00:07:24.985Z,12
2022-10-09T00:08:24.982Z,14
2022-10-09T00:09:24.987Z,15
2022-10-09T00:10:24.987Z,26
2022-10-09T00:11:24.982Z,14
2022-10-09T00:12:24.985Z,14
2022-10-09T00:13:24.993Z,13
2022-10-09T00:14:24.983Z,15
2022-10-09T00:15:24.983Z,15
2022-10-09T00:16:25.046Z,15
2022-10-09T00:17:24.984Z,16
2022-10-09T00:18:24.984Z,16
2022-10-09T00:19:24.983Z,14
2022-10-09T00:21:24.993Z,14
2022-10-09T00:22:24.996Z,15
2022-10-09T00:23:24.988Z,15
2022-10-09T00:24:24.992Z,15
2022-10-09T00:25:24.987Z,14
2022-10-09T00:26:24.982Z,13
2022-10-09T00:27:24.989Z,13
2022-10-09T00:28:25.139Z,14
2022-10-09T00:29:24.987Z,13
2022-10-09T00:30:24.989Z,14
2022-10-09T00:31:25.764Z,14
2022-10-09T00:32:24.988Z,14
2022-10-09T00:33:24.981Z,14
2022-10-09T00:35:24.984Z,15
2022-10-09T00:36:24.985Z,15
2022-10-09T00:37:25.003Z,14
2022-10-09T00:38:24.990Z,15
2022-10-09T00:39:24.995Z,15
2022-10-09T00:40:24.983Z,15
2022-10-09T00:41:24.988Z,12
2022-10-09T00:42:24.998Z,14
2022-10-09T00:43:24.995Z,12
2022-10-09T00:44:24.987Z,14
2022-10-09T00:45:24.980Z,14
2022-10-09T00:46:25.048Z,14
2022-10-09T00:47:24.984Z,15
2022-10-09T00:48:24.986Z,13
2022-10-09T00:49:24.979Z,13
2022-10-09T00:50:24.989Z,13
2022-10-09T00:51:25.042Z,14
2022-10-09T00:52:25.002Z,13
2022-10-09T00:53:24.987Z,14
2022-10-09T00:54:25.003Z,13
2022-10-09T00:56:24.995Z,12
2022-10-09T00:57:24.982Z,14
2022-10-09T00:58:24.996Z,11
2022-10-09T00:59:24.995Z,12
2022-10-09T01:00:25.003Z,11
2022-10-09T01:01:25.060Z,14
2022-10-09T01:02:25.106Z,11
2022-10-09T01:03:24.981Z,10
2022-10-09T01:04:24.996Z,10
2022-10-09T01:05:25.003Z,10
2022-10-09T01:06:25.026Z,9
2022-10-09T01:07:24.985Z,11
2022-10-09T01:08:25.018Z,11
2022-10-09T01:09:24.981Z,11
2022-10-09T01:10:24.998Z,10
2022-10-09T01:11:24.986Z,10
2022-10-09T01:13:24.998Z,10
2022-10-09T01:14:24.986Z,10
2022-10-09T01:15:25.038Z,10
2022-10-09T01:16:25.006Z,10
2022-10-09T01:18:24.987Z,11
2022-10-09T01:19:24.993Z,10
2022-10-09T01:21:24.995Z,11
2022-10-09T01:22:24.990Z,11
2022-10-09T01:23:24.993Z,12
2022-10-09T01:24:24.992Z,13
2022-10-09T01:25:25.001Z,10
2022-10-09T01:26:24.986Z,12
2022-10-09T01:27:24.987Z,14
2022-10-09T01:28:25.077Z,12
2022-10-09T01:29:24.995Z,12
2022-10-09T01:30:24.992Z,10
2022-10-09T01:31:25.120Z,16
2022-10-09T01:32:24.999Z,11
2022-10-09T01:34:25.009Z,10
2022-10-09T01:35:24.997Z,9
2022-10-09T01:36:24.985Z,9
2022-10-09T01:37:24.991Z,9
2022-10-09T01:38:25.008Z,9
2022-10-09T01:39:25.022Z,8
2022-10-09T01:40:24.997Z,10
2022-10-09T01:41:24.989Z,10
2022-10-09T01:42:24.983Z,10
2022-10-09T01:43:25.018Z,9
2022-10-09T01:44:24.997Z,10
2022-10-09T01:45:24.993Z,9
2022-10-09T01:46:25.054Z,8
2022-10-09T01:47:24.995Z,9
2022-10-09T01:48:24.997Z,8
2022-10-09T01:49:24.987Z,8
2022-10-09T01:50:25.010Z,8
2022-10-09T01:51:24.993Z,8
2022-10-09T01:52:25.003Z,10
2022-10-09T01:53:24.995Z,7
2022-10-09T01:54:24.995Z,9
2022-10-09T01:55:25.022Z,8
2022-10-09T01:56:24.988Z,8
2022-10-09T01:57:24.999Z,9
2022-10-09T01:58:24.993Z,9
2022-10-09T01:59:24.997Z,10
2022-10-09T02:00:24.993Z,9
2022-10-09T02:01:25.073Z,8
2022-10-09T02:02:25.067Z,8
2022-10-09T02:03:24.992Z,6
2022-10-09T02:04:24.995Z,7
2022-10-09T02:05:25.007Z,6
2022-10-09T02:06:24.994Z,6
2022-10-09T02:07:25.016Z,6
2022-10-09T02:08:24.989Z,10
2022-10-09T02:09:25.001Z,5
2022-10-09T02:11:25.003Z,5
2022-10-09T02:12:25.008Z,6
2022-10-09T02:13:25.002Z,6
2022-10-09T02:14:25.006Z,5
2022-10-09T02:15:24.997Z,5
2022-10-09T02:16:25.088Z,5
2022-10-09T02:17:25.053Z,5
2022-10-09T02:18:24.998Z,5
2022-10-09T02:19:25.001Z,6
2022-10-09T02:20:24.999Z,7
2022-10-09T02:21:25.006Z,5
2022-10-09T02:22:25.002Z,6
2022-10-09T02:24:24.996Z,6
2022-10-09T02:25:24.998Z,8
2022-10-09T02:26:25.013Z,5
2022-10-09T02:27:25.005Z,7
2022-10-09T02:28:25.110Z,5
2022-10-09T02:29:24.996Z,5
2022-10-09T02:30:24.995Z,6
2022-10-09T02:32:25.001Z,9
2022-10-09T02:33:25.003Z,6
2022-10-09T02:34:25.030Z,8
2022-10-09T02:35:25.002Z,10
2022-10-09T02:36:25.007Z,9
2022-10-09T02:37:25.000Z,10
2022-10-09T02:38:25.001Z,10
2022-10-09T02:39:25.008Z,10
2022-10-09T02:40:25.005Z,10
2022-10-09T02:42:25.001Z,10
2022-10-09T02:43:25.006Z,10
2022-10-09T02:45:25.001Z,10
2022-10-09T02:46:25.068Z,11
2022-10-09T02:47:25.005Z,10
2022-10-09T02:48:25.003Z,11
2022-10-09T02:49:25.003Z,12
2022-10-09T02:50:25.003Z,12
2022-10-09T02:51:25.015Z,11
2022-10-09T02:53:25.002Z,10
2022-10-09T02:54:25.003Z,10
2022-10-09T02:55:25.004Z,10
2022-10-09T02:56:25.005Z,10
2022-10-09T02:57:24.997Z,0
2022-10-09T02:58:25.002Z,13
2022-10-09T02:59:25.002Z,16
2022-10-09T03:00:24.996Z,0
2022-10-09T03:01:25.051Z,14
2022-10-09T03:02:25.197Z,11
2022-10-09T03:03:25.005Z,12
2022-10-09T03:04:24.999Z,12
2022-10-09T03:05:25.008Z,16
2022-10-09T03:06:25.009Z,16
2022-10-09T03:07:25.005Z,14
2022-10-09T03:08:25.002Z,13
2022-10-09T03:09:24.993Z,11
2022-10-09T03:10:25.004Z,11
2022-10-09T03:11:25.013Z,11
2022-10-09T03:12:25.029Z,13
2022-10-09T03:13:25.006Z,10
2022-10-09T03:14:25.002Z,10
2022-10-09T03:15:25.008Z,10
2022-10-09T03:16:25.165Z,9
2022-10-09T03:17:25.004Z,11
2022-10-09T03:18:25.007Z,9
2022-10-09T03:19:25.003Z,9
2022-10-09T03:20:24.998Z,7
2022-10-09T03:21:25.007Z,8
2022-10-09T03:22:25.007Z,8
2022-10-09T03:23:25.016Z,7
2022-10-09T03:24:24.998Z,9
2022-10-09T03:25:25.008Z,9
2022-10-09T03:26:25.009Z,0
2022-10-09T03:27:24.999Z,8
2022-10-09T03:28:25.093Z,9
2022-10-09T03:29:25.014Z,8
2022-10-09T03:30:25.011Z,8
2022-10-09T03:31:50.378Z,8
2022-10-09T03:32:25.094Z,9
2022-10-09T03:33:25.010Z,7
2022-10-09T03:34:25.006Z,7
2022-10-09T03:35:25.002Z,7
2022-10-09T03:36:25.016Z,7
2022-10-09T03:37:25.004Z,8
2022-10-09T03:38:25.013Z,7
2022-10-09T03:39:25.002Z,8
2022-10-09T03:40:25.009Z,8
2022-10-09T03:41:25.008Z,8
2022-10-09T03:42:25.004Z,10
2022-10-09T03:43:25.031Z,10
2022-10-09T03:44:25.004Z,9
2022-10-09T03:45:25.003Z,9
2022-10-09T03:46:25.139Z,10
2022-10-09T03:47:25.002Z,8
2022-10-09T03:48:25.007Z,8
2022-10-09T03:49:25.002Z,8
2022-10-09T03:50:25.006Z,8
2022-10-09T03:51:25.010Z,9
2022-10-09T03:52:25.018Z,8
2022-10-09T03:53:25.004Z,10
2022-10-09T03:54:25.016Z,8
2022-10-09T03:55:25.015Z,8
2022-10-09T03:56:25.018Z,8
2022-10-09T03:57:25.006Z,8
2022-10-09T03:58:25.050Z,8
2022-10-09T03:59:25.003Z,9
2022-10-09T04:00:25.014Z,8
2022-10-09T04:01:25.026Z,8
2022-10-09T04:03:25.045Z,8
2022-10-09T04:04:25.013Z,8
2022-10-09T04:05:25.012Z,8
2022-10-09T04:06:25.013Z,9
2022-10-09T04:07:25.010Z,8
2022-10-09T04:08:25.010Z,8
2022-10-09T04:09:25.012Z,9
2022-10-09T04:10:25.008Z,9
2022-10-09T04:11:25.012Z,8
2022-10-09T04:12:25.007Z,9
2022-10-09T04:13:25.013Z,9
2022-10-09T04:14:25.018Z,8
2022-10-09T04:15:25.008Z,9
2022-10-09T04:16:25.028Z,9
2022-10-09T04:17:25.022Z,9
2022-10-09T04:18:25.011Z,9
2022-10-09T04:19:25.009Z,12
2022-10-09T04:20:25.005Z,9
2022-10-09T04:21:25.013Z,10
2022-10-09T04:22:25.016Z,8
2022-10-09T04:23:25.005Z,9
2022-10-09T04:24:25.012Z,13
2022-10-09T04:25:25.016Z,9
2022-10-09T04:26:25.015Z,9
2022-10-09T04:27:25.009Z,8
2022-10-09T04:28:25.082Z,9
2022-10-09T04:29:25.040Z,8
2022-10-09T04:30:25.019Z,8
2022-10-09T04:31:25.105Z,9
2022-10-09T04:32:25.018Z,8
2022-10-09T04:33:25.007Z,9
2022-10-09T04:34:25.011Z,8
2022-10-09T04:35:25.019Z,7
2022-10-09T04:36:25.013Z,8
2022-10-09T04:37:25.007Z,0
2022-10-09T04:38:25.009Z,8
2022-10-09T04:42:25.019Z,9
2022-10-09T04:43:25.021Z,9
2022-10-09T04:44:25.018Z,9
2022-10-09T04:45:25.049Z,10
2022-10-09T04:46:25.015Z,9
2022-10-09T04:47:25.017Z,9
2022-10-09T04:48:25.015Z,8
2022-10-09T04:49:25.016Z,10
2022-10-09T04:50:25.022Z,8
2022-10-09T04:51:25.001Z,9
2022-10-09T04:52:25.035Z,9
2022-10-09T04:53:25.013Z,8
2022-10-09T04:54:25.013Z,9
2022-10-09T04:55:25.020Z,9
2022-10-09T04:56:25.015Z,9
2022-10-09T04:57:25.013Z,10
2022-10-09T04:58:25.017Z,8
2022-10-09T04:59:25.019Z,9
2022-10-09T05:00:25.039Z,8
2022-10-09T05:01:25.107Z,9
2022-10-09T05:02:25.134Z,9
2022-10-09T05:03:25.023Z,8
2022-10-09T05:04:25.012Z,9
2022-10-09T05:05:25.015Z,9
2022-10-09T05:06:25.015Z,9
2022-10-09T05:07:25.021Z,9
2022-10-09T05:08:25.018Z,9
2022-10-09T05:09:25.021Z,9
2022-10-09T05:10:25.088Z,10
2022-10-09T05:11:25.018Z,10
2022-10-09T05:12:25.025Z,8
2022-10-09T05:13:25.018Z,9
2022-10-09T05:14:25.026Z,11
2022-10-09T05:15:25.018Z,9
2022-10-09T05:16:25.122Z,10
2022-10-09T05:17:25.079Z,8
2022-10-09T05:18:25.033Z,10
2022-10-09T05:19:25.028Z,8
2022-10-09T05:20:25.029Z,10
2022-10-09T05:21:25.022Z,9
2022-10-09T05:22:25.094Z,8
2022-10-09T05:23:25.025Z,9
2022-10-09T05:24:25.018Z,21
2022-10-09T05:25:25.026Z,9
2022-10-09T05:26:25.025Z,9
2022-10-09T05:27:25.018Z,9
2022-10-09T05:28:25.101Z,9
2022-10-09T05:29:25.036Z,9
2022-10-09T05:30:25.029Z,10
2022-10-09T05:31:25.069Z,8
2022-10-09T05:32:25.025Z,8
2022-10-09T05:33:25.023Z,10
2022-10-09T05:34:25.012Z,9
2022-10-09T05:35:25.026Z,10
2022-10-09T05:36:25.017Z,9
2022-10-09T05:37:25.025Z,10
2022-10-09T05:38:25.025Z,8
2022-10-09T05:39:25.020Z,9
2022-10-09T05:40:29.109Z,10
2022-10-09T05:41:25.019Z,9
2022-10-09T05:42:25.018Z,8
2022-10-09T05:43:25.024Z,9
2022-10-09T05:44:25.023Z,8
2022-10-09T05:45:25.019Z,9
2022-10-09T05:46:25.029Z,8
2022-10-09T05:47:25.020Z,8
2022-10-09T05:48:25.015Z,8
2022-10-09T05:49:25.108Z,7
2022-10-09T05:50:25.021Z,9
2022-10-09T05:51:25.025Z,8
2022-10-09T05:52:25.035Z,10
2022-10-09T05:53:25.016Z,8
2022-10-09T05:54:25.028Z,8
2022-10-09T05:55:25.030Z,8
2022-10-09T05:57:25.032Z,8
2022-10-09T05:58:25.024Z,8
2022-10-09T05:59:25.015Z,10
2022-10-09T06:00:25.025Z,8
2022-10-09T06:01:25.139Z,8
2022-10-09T06:03:25.025Z,9
2022-10-09T06:04:25.026Z,7
2022-10-09T06:05:25.023Z,9
2022-10-09T06:06:25.038Z,10
2022-10-09T06:07:25.021Z,9
2022-10-09T06:08:25.017Z,10
2022-10-09T06:09:25.026Z,8
2022-10-09T06:10:27.101Z,8
2022-10-09T06:11:25.040Z,8
2022-10-09T06:12:25.019Z,9
2022-10-09T06:13:25.020Z,9
2022-10-09T06:14:25.031Z,9
2022-10-09T06:15:25.031Z,8
2022-10-09T06:16:25.122Z,8
2022-10-09T06:17:25.033Z,10
2022-10-09T06:18:25.022Z,9
2022-10-09T06:20:25.024Z,10
2022-10-09T06:21:25.021Z,8
2022-10-09T06:22:25.026Z,8
2022-10-09T06:23:25.023Z,10
2022-10-09T06:24:28.669Z,9
2022-10-09T06:25:25.031Z,9
2022-10-09T06:26:25.020Z,9
2022-10-09T06:27:25.035Z,8
2022-10-09T06:28:25.097Z,9
2022-10-09T06:30:25.024Z,20
2022-10-09T06:31:25.103Z,18
2022-10-09T06:32:25.030Z,20
2022-10-09T06:33:25.049Z,20
2022-10-09T06:34:25.028Z,18
2022-10-09T06:35:25.026Z,19
2022-10-09T06:36:25.031Z,18
2022-10-09T06:37:25.048Z,18
2022-10-09T06:38:25.031Z,17
2022-10-09T06:39:25.025Z,18
2022-10-09T06:42:25.023Z,18
2022-10-09T06:43:25.023Z,19
2022-10-09T06:44:25.033Z,16
2022-10-09T06:45:25.032Z,14
2022-10-09T06:46:25.082Z,15
2022-10-09T06:47:25.027Z,13
2022-10-09T06:48:25.026Z,15
2022-10-09T06:49:25.031Z,12
2022-10-09T06:50:25.030Z,12
2022-10-09T06:51:25.028Z,11
2022-10-09T06:52:25.028Z,10
2022-10-09T06:53:25.031Z,10
2022-10-09T06:54:25.030Z,11
2022-10-09T06:55:28.616Z,11
2022-10-09T06:56:25.031Z,11
2022-10-09T06:57:25.027Z,12
2022-10-09T06:58:25.033Z,12
2022-10-09T07:00:25.022Z,13
2022-10-09T07:01:25.127Z,12
2022-10-09T07:02:25.052Z,11
2022-10-09T07:03:25.031Z,10
2022-10-09T07:04:25.053Z,17
2022-10-09T07:05:25.020Z,14
2022-10-09T07:06:25.045Z,16
2022-10-09T07:07:25.028Z,16
2022-10-09T07:08:25.032Z,15
2022-10-09T07:09:25.032Z,16
2022-10-09T07:10:25.472Z,15
2022-10-09T07:11:25.027Z,16
2022-10-09T07:12:25.035Z,14
2022-10-09T07:13:25.028Z,14
2022-10-09T07:14:25.030Z,12
2022-10-09T07:15:25.222Z,13
2022-10-09T07:16:25.108Z,13
2022-10-09T07:17:25.033Z,10
2022-10-09T07:18:25.039Z,9
2022-10-09T07:19:25.036Z,9
2022-10-09T07:20:25.035Z,13
2022-10-09T07:21:25.030Z,20
2022-10-09T07:22:27.068Z,21
2022-10-09T07:23:25.027Z,20
2022-10-09T07:24:25.034Z,20
2022-10-09T07:25:25.038Z,21
2022-10-09T07:26:25.028Z,19
2022-10-09T07:27:25.090Z,18
2022-10-09T07:28:25.073Z,19
2022-10-09T07:29:25.030Z,18
2022-10-09T07:30:25.030Z,19
2022-10-09T07:31:25.096Z,19
2022-10-09T07:32:25.036Z,15
2022-10-09T07:33:25.049Z,20
2022-10-09T07:34:25.034Z,18
2022-10-09T07:35:25.107Z,0
2022-10-09T07:36:25.028Z,18
2022-10-09T07:37:25.030Z,17
2022-10-09T07:38:25.024Z,0
2022-10-09T07:39:25.028Z,0
2022-10-09T07:40:25.058Z,0
2022-10-09T07:41:25.100Z,0
2022-10-09T07:42:25.034Z,0
2022-10-09T07:43:25.025Z,0
2022-10-09T07:44:25.037Z,17
2022-10-09T07:45:25.029Z,18
2022-10-09T07:46:27.621Z,0
2022-10-09T07:47:25.029Z,0
2022-10-09T07:48:25.046Z,0
2022-10-09T07:49:25.035Z,0
2022-10-09T07:50:25.070Z,0
2022-10-09T07:51:25.032Z,0
2022-10-09T07:53:25.034Z,0
2022-10-09T07:54:25.039Z,0
2022-10-09T07:55:25.033Z,0
2022-10-09T07:56:25.029Z,0
2022-10-09T07:57:25.046Z,21
2022-10-09T07:58:25.031Z,22
2022-10-09T07:59:25.038Z,11
2022-10-09T08:00:25.087Z,0
2022-10-09T08:01:25.150Z,0
2022-10-09T08:04:25.037Z,0
2022-10-09T08:05:25.042Z,0
2022-10-09T08:06:25.056Z,0
2022-10-09T08:07:25.047Z,0
2022-10-09T08:08:25.031Z,0
2022-10-09T08:09:25.038Z,0
2022-10-09T08:10:25.045Z,0
2022-10-09T08:11:25.035Z,0
2022-10-09T08:12:25.037Z,0
2022-10-09T08:14:25.044Z,0
2022-10-09T08:15:25.135Z,0
2022-10-09T08:16:25.045Z,0
2022-10-09T08:17:25.034Z,0
2022-10-09T08:18:25.047Z,177
2022-10-09T08:19:25.046Z,263
2022-10-09T08:20:25.042Z,152
2022-10-09T08:21:25.038Z,285
2022-10-09T08:22:25.032Z,418
2022-10-09T08:23:25.040Z,351
2022-10-09T08:24:25.047Z,423
2022-10-09T08:25:25.045Z,243
2022-10-09T08:26:25.037Z,422
2022-10-09T08:27:25.047Z,410
2022-10-09T08:28:25.122Z,547
2022-10-09T08:29:25.055Z,575
2022-10-09T08:30:25.042Z,565
2022-10-09T08:31:25.289Z,557
2022-10-09T08:32:25.061Z,472
2022-10-09T08:33:25.060Z,467
2022-10-09T08:34:25.057Z,481
2022-10-09T08:35:25.059Z,534
2022-10-09T08:36:25.060Z,578
2022-10-09T08:37:25.225Z,566
2022-10-09T08:38:46.280Z,507
2022-10-09T08:39:25.044Z,438
2022-10-09T08:40:25.058Z,459
2022-10-09T08:41:26.099Z,260
2022-10-09T08:42:25.054Z,252
2022-10-09T08:43:25.066Z,200
2022-10-09T08:44:25.055Z,178
2022-10-09T08:45:25.051Z,106
2022-10-09T08:46:25.065Z,25
2022-10-09T08:47:25.040Z,8
2022-10-09T08:48:25.053Z,8
2022-10-09T08:49:25.055Z,10
2022-10-09T08:50:25.059Z,11
2022-10-09T08:51:25.047Z,4
2022-10-09T08:52:25.051Z,6
2022-10-09T08:53:25.071Z,2
2022-10-09T08:54:25.123Z,2
2022-10-09T08:56:25.065Z,1
2022-10-09T08:57:25.053Z,7
2022-10-09T08:58:25.065Z,2
2022-10-09T08:59:25.057Z,1
2022-10-09T09:00:25.071Z,1
2022-10-09T09:01:25.115Z,0
2022-10-09T09:02:25.070Z,1
2022-10-09T09:03:25.056Z,2
2022-10-09T09:04:25.056Z,1
2022-10-09T09:05:25.067Z,2
2022-10-09T09:06:25.052Z,0
2022-10-09T09:07:25.060Z,2
2022-10-09T09:08:25.136Z,1
2022-10-09T09:09:25.088Z,1
2022-10-09T09:10:25.073Z,2
2022-10-09T09:11:25.063Z,1
2022-10-09T09:12:25.082Z,1
2022-10-09T09:13:25.063Z,0
2022-10-09T09:14:25.057Z,0
2022-10-09T09:15:25.061Z,0
2022-10-09T09:17:25.064Z,0
2022-10-09T09:18:25.056Z,0
2022-10-09T09:19:25.059Z,0
2022-10-09T09:20:25.058Z,0
2022-10-09T09:21:25.060Z,0
2022-10-09T09:22:25.054Z,0
2022-10-09T09:23:25.069Z,0
2022-10-09T09:24:25.067Z,0
2022-10-09T09:25:25.061Z,0
2022-10-09T09:26:25.071Z,0
2022-10-09T09:27:25.065Z,0
2022-10-09T09:28:25.129Z,2
2022-10-09T09:29:25.073Z,3
2022-10-09T09:30:25.060Z,1
2022-10-09T09:31:25.128Z,0
2022-10-09T09:32:25.066Z,0
2022-10-09T09:33:25.059Z,0
2022-10-09T09:34:25.065Z,0
2022-10-09T09:35:25.064Z,0
2022-10-09T09:36:25.067Z,0
2022-10-09T09:38:25.066Z,0
2022-10-09T09:40:23.851Z,0
2022-10-09T09:40:36.288Z,0
2022-10-09T09:42:25.070Z,0
2022-10-09T09:43:25.056Z,0
2022-10-09T09:44:25.061Z,0
2022-10-09T09:45:25.074Z,0
2022-10-09T09:46:25.105Z,0
2022-10-09T09:47:25.070Z,0
2022-10-09T09:48:25.083Z,0
2022-10-09T09:49:25.065Z,0
2022-10-09T09:50:46.060Z,0
2022-10-09T09:51:29.414Z,0
2022-10-09T09:52:25.072Z,0
2022-10-09T09:53:25.068Z,0
2022-10-09T09:54:25.071Z,0
2022-10-09T09:55:25.067Z,0
2022-10-09T09:56:25.070Z,0
2022-10-09T09:57:25.081Z,0
2022-10-09T09:58:25.063Z,0
2022-10-09T09:59:25.072Z,0
2022-10-09T10:00:25.071Z,0
2022-10-09T10:01:25.187Z,0
2022-10-09T10:02:25.149Z,0
2022-10-09T10:03:25.064Z,0
2022-10-09T10:04:25.073Z,0
2022-10-09T10:05:25.065Z,0
2022-10-09T10:06:25.070Z,0
2022-10-09T10:07:25.077Z,0
2022-10-09T10:08:25.074Z,0
2022-10-09T10:09:25.081Z,0
2022-10-09T10:10:25.943Z,0
2022-10-09T10:11:25.077Z,0
2022-10-09T10:12:25.078Z,0
2022-10-09T10:13:25.077Z,0
2022-10-09T10:14:25.099Z,0
2022-10-09T10:15:25.074Z,0
2022-10-09T10:16:25.161Z,0
2022-10-09T10:17:25.079Z,0
2022-10-09T10:18:25.083Z,0
2022-10-09T10:19:25.079Z,0
2022-10-09T10:20:25.117Z,0
2022-10-09T10:21:25.084Z,0
2022-10-09T10:22:25.080Z,0
2022-10-09T10:23:25.075Z,0
2022-10-09T10:24:25.078Z,0
2022-10-09T10:25:25.074Z,0
2022-10-09T10:26:25.081Z,0
2022-10-09T10:27:25.078Z,0
2022-10-09T10:28:25.125Z,0
2022-10-09T10:29:25.076Z,0
2022-10-09T10:30:25.077Z,0
2022-10-09T10:31:25.111Z,0
2022-10-09T10:32:25.138Z,0
2022-10-09T10:33:25.078Z,0
2022-10-09T10:34:25.097Z,0
2022-10-09T10:35:25.091Z,0
2022-10-09T10:36:25.084Z,0
2022-10-09T10:37:25.076Z,0
2022-10-09T10:38:25.073Z,0
2022-10-09T10:39:25.082Z,0
2022-10-09T10:40:25.084Z,0
2022-10-09T10:41:25.103Z,0
2022-10-09T10:42:25.076Z,0
2022-10-09T10:43:25.080Z,0
2022-10-09T10:44:25.076Z,0
2022-10-09T10:45:25.079Z,0
2022-10-09T10:46:25.127Z,0
2022-10-09T10:47:25.084Z,0
2022-10-09T10:48:25.077Z,0
2022-10-09T10:50:25.096Z,0
2022-10-09T10:51:25.091Z,0
2022-10-09T10:52:25.089Z,0
2022-10-09T10:53:25.081Z,0
2022-10-09T10:54:25.087Z,0
2022-10-09T10:55:25.104Z,0
2022-10-09T10:56:25.082Z,0
2022-10-09T10:57:25.090Z,0
2022-10-09T10:58:25.081Z,0
2022-10-09T10:59:25.102Z,0
2022-10-09T11:00:25.097Z,0
2022-10-09T11:01:25.185Z,0
2022-10-09T11:02:25.090Z,0
2022-10-09T11:03:25.141Z,0
2022-10-09T11:04:25.099Z,3
2022-10-09T11:05:25.093Z,2
2022-10-09T11:06:25.094Z,0
2022-10-09T11:07:25.083Z,0
2022-10-09T11:08:25.086Z,0
2022-10-09T11:09:25.087Z,0
2022-10-09T11:10:25.085Z,0
2022-10-09T11:11:25.085Z,0
2022-10-09T11:12:43.739Z,0
2022-10-09T11:13:25.088Z,0
2022-10-09T11:15:25.096Z,0
2022-10-09T11:16:25.153Z,0
2022-10-09T11:17:25.152Z,0
2022-10-09T11:18:25.082Z,0
2022-10-09T11:19:25.089Z,0
2022-10-09T11:20:25.095Z,0
2022-10-09T11:21:25.085Z,0
2022-10-09T11:22:25.093Z,45
2022-10-09T11:23:25.089Z,63
2022-10-09T11:24:25.090Z,115
2022-10-09T11:25:25.087Z,74
2022-10-09T11:26:25.086Z,76
2022-10-09T11:27:25.088Z,163
2022-10-09T11:28:25.202Z,169
2022-10-09T11:29:25.086Z,183
2022-10-09T11:30:25.092Z,118
2022-10-09T11:31:25.132Z,151
2022-10-09T11:32:25.100Z,163
2022-10-09T11:34:25.471Z,0
2022-10-09T11:36:25.089Z,0
2022-10-09T11:37:25.090Z,0
2022-10-09T11:38:25.090Z,0
2022-10-09T11:39:25.103Z,0
2022-10-09T11:40:25.093Z,0
2022-10-09T11:41:25.096Z,0
2022-10-09T11:42:25.093Z,328
2022-10-09T11:44:25.098Z,0
2022-10-09T11:45:25.202Z,0
2022-10-09T11:46:25.098Z,0
2022-10-09T11:47:25.092Z,0
2022-10-09T11:48:25.094Z,0
2022-10-09T11:49:25.103Z,0
2022-10-09T11:50:25.099Z,0
2022-10-09T11:51:25.097Z,0
2022-10-09T11:53:25.085Z,0
2022-10-09T11:54:25.159Z,0
2022-10-09T11:55:25.099Z,0
2022-10-09T11:56:25.097Z,0
2022-10-09T11:57:25.102Z,531
2022-10-09T11:58:25.127Z,0
2022-10-09T11:59:25.121Z,0
2022-10-09T12:00:25.102Z,0
2022-10-09T12:01:25.131Z,0
2022-10-09T12:02:25.146Z,0
2022-10-09T12:03:25.099Z,0
2022-10-09T12:04:43.617Z,0
2022-10-09T12:05:25.099Z,0
2022-10-09T12:06:25.095Z,0
2022-10-09T12:07:25.130Z,0
2022-10-09T12:08:25.101Z,0
2022-10-09T12:09:25.103Z,0
2022-10-09T12:10:25.108Z,0
2022-10-09T12:11:25.096Z,0
2022-10-09T12:12:25.111Z,0
2022-10-09T12:14:25.169Z,0
2022-10-09T12:15:25.099Z,0
2022-10-09T12:16:25.197Z,0
2022-10-09T12:18:25.095Z,0
2022-10-09T12:19:25.103Z,0
2022-10-09T12:20:25.103Z,0
2022-10-09T12:21:25.101Z,0
2022-10-09T12:22:25.104Z,0
2022-10-09T12:23:27.121Z,0
2022-10-09T12:24:25.101Z,0
2022-10-09T12:25:25.122Z,0
2022-10-09T12:26:25.106Z,0
2022-10-09T12:27:25.103Z,0
2022-10-09T12:28:25.195Z,0
2022-10-09T12:29:25.102Z,0
2022-10-09T12:30:25.137Z,0
2022-10-09T12:31:25.222Z,0
2022-10-09T12:32:25.099Z,0
2022-10-09T12:33:25.104Z,0
2022-10-09T12:35:25.102Z,0
2022-10-09T12:36:25.103Z,0
2022-10-09T12:37:25.117Z,0
2022-10-09T12:38:25.107Z,0
2022-10-09T12:39:25.131Z,0
2022-10-09T12:40:25.116Z,0
2022-10-09T12:41:25.099Z,0
2022-10-09T12:42:25.218Z,0
2022-10-09T12:43:25.104Z,0
2022-10-09T12:44:25.114Z,0
2022-10-09T12:45:25.116Z,0
2022-10-09T12:46:25.207Z,0
2022-10-09T12:47:25.104Z,0
2022-10-09T12:48:25.107Z,0
2022-10-09T12:49:25.107Z,0
2022-10-09T12:50:25.115Z,0
2022-10-09T12:51:25.109Z,0
2022-10-09T12:52:25.110Z,0
2022-10-09T12:53:25.113Z,0
2022-10-09T12:54:25.140Z,0
2022-10-09T12:55:25.104Z,0
2022-10-09T12:56:25.106Z,0
2022-10-09T12:57:27.825Z,0
2022-10-09T12:58:25.107Z,0
2022-10-09T12:59:25.099Z,0
2022-10-09T13:00:25.096Z,0
2022-10-09T13:01:25.283Z,0
2022-10-09T13:02:25.272Z,0
2022-10-09T13:03:25.116Z,0
2022-10-09T13:04:25.113Z,0
2022-10-09T13:05:25.118Z,0
2022-10-09T13:07:25.126Z,0
2022-10-09T13:08:25.105Z,0
2022-10-09T13:09:25.115Z,0
2022-10-09T13:10:25.102Z,0
2022-10-09T13:11:25.114Z,0
2022-10-09T13:12:25.107Z,0
2022-10-09T13:13:25.124Z,0
2022-10-09T13:14:25.110Z,0
2022-10-09T13:15:25.121Z,0
2022-10-09T13:16:25.156Z,0
2022-10-09T13:17:25.220Z,0
2022-10-09T13:18:25.126Z,0
2022-10-09T13:19:25.115Z,0
2022-10-09T13:20:25.127Z,0
2022-10-09T13:21:25.110Z,0
2022-10-09T13:22:25.116Z,0
2022-10-09T13:23:25.116Z,0
2022-10-09T13:24:25.118Z,0
2022-10-09T13:25:25.120Z,0
2022-10-09T13:26:25.116Z,0
2022-10-09T13:28:25.140Z,0
2022-10-09T13:29:25.114Z,0
2022-10-09T13:30:25.124Z,0
2022-10-09T13:31:25.112Z,0
2022-10-09T13:33:25.118Z,0
2022-10-09T13:34:25.119Z,0
2022-10-09T13:36:25.115Z,0
2022-10-09T13:37:25.115Z,0
2022-10-09T13:38:25.139Z,0
2022-10-09T13:39:25.122Z,0
2022-10-09T13:40:25.128Z,0
2022-10-09T13:41:25.131Z,0
2022-10-09T13:42:25.114Z,0
2022-10-09T13:43:25.126Z,0
2022-10-09T13:44:25.115Z,0
2022-10-09T13:45:25.115Z,0
2022-10-09T13:46:25.168Z,0
2022-10-09T13:47:25.130Z,0
2022-10-09T13:49:25.122Z,0
2022-10-09T13:50:25.131Z,0
2022-10-09T13:51:25.119Z,0
2022-10-09T13:52:25.270Z,0
2022-10-09T13:53:25.112Z,0
2022-10-09T13:54:25.125Z,0
2022-10-09T13:55:25.134Z,0
2022-10-09T13:56:25.120Z,0
2022-10-09T13:57:25.126Z,0
2022-10-09T13:58:25.143Z,0
2022-10-09T13:59:25.126Z,0
2022-10-09T14:00:25.125Z,0
2022-10-09T14:01:25.151Z,0
2022-10-09T14:02:25.125Z,0
2022-10-09T14:03:25.119Z,0
2022-10-09T14:04:25.126Z,0
2022-10-09T14:05:25.128Z,0
2022-10-09T14:06:25.146Z,0
2022-10-09T14:07:25.120Z,0
2022-10-09T14:08:25.155Z,0
2022-10-09T14:10:25.134Z,0
2022-10-09T14:11:25.123Z,0
2022-10-09T14:12:25.129Z,0
2022-10-09T14:13:25.129Z,0
2022-10-09T14:14:25.122Z,0
2022-10-09T14:15:25.156Z,0
2022-10-09T14:16:25.123Z,0
2022-10-09T14:17:25.124Z,0
2022-10-09T14:18:25.122Z,0
2022-10-09T14:19:25.152Z,0
2022-10-09T14:20:25.141Z,0
2022-10-09T14:21:25.129Z,0
2022-10-09T14:22:25.123Z,0
2022-10-09T14:23:25.128Z,0
2022-10-09T14:24:25.163Z,0
2022-10-09T14:25:25.133Z,0
2022-10-09T14:26:25.126Z,0
2022-10-09T14:27:25.207Z,0
2022-10-09T14:28:25.231Z,0
2022-10-09T14:29:25.132Z,0
2022-10-09T14:31:25.144Z,0
2022-10-09T14:32:25.134Z,0
2022-10-09T14:33:25.136Z,0
2022-10-09T14:34:25.137Z,0
2022-10-09T14:35:25.124Z,0
2022-10-09T14:36:25.139Z,0
2022-10-09T14:37:40.686Z,0
2022-10-09T14:38:25.134Z,0
2022-10-09T14:39:25.132Z,0
2022-10-09T14:40:25.128Z,0
2022-10-09T14:41:25.134Z,0
2022-10-09T14:42:25.129Z,0
2022-10-09T14:43:25.129Z,0
2022-10-09T14:44:25.140Z,0
2022-10-09T14:45:25.138Z,0
2022-10-09T14:46:25.148Z,0
2022-10-09T14:47:25.129Z,0
2022-10-09T14:48:25.129Z,0
2022-10-09T14:49:25.126Z,0
2022-10-09T14:50:25.164Z,0
2022-10-09T14:51:25.123Z,0
2022-10-09T14:52:25.141Z,0
2022-10-09T14:53:25.129Z,0
2022-10-09T14:54:25.128Z,0
2022-10-09T14:55:25.138Z,0
2022-10-09T14:56:25.144Z,0
2022-10-09T14:57:25.131Z,0
2022-10-09T14:58:25.140Z,0
2022-10-09T14:59:25.134Z,0
2022-10-09T15:00:25.136Z,0
2022-10-09T15:01:25.141Z,0
2022-10-09T15:02:25.140Z,0
2022-10-09T15:03:25.206Z,0
2022-10-09T15:04:25.137Z,0
2022-10-09T15:05:25.134Z,0
2022-10-09T15:06:25.135Z,0
2022-10-09T15:07:25.131Z,0
2022-10-09T15:08:25.151Z,0
2022-10-09T15:09:25.142Z,0
2022-10-09T15:10:25.138Z,0
2022-10-09T15:11:25.145Z,0
2022-10-09T15:12:25.141Z,0
2022-10-09T15:13:25.901Z,0
2022-10-09T15:14:25.141Z,0
2022-10-09T15:15:26.966Z,0
2022-10-09T15:16:25.141Z,0
2022-10-09T15:17:25.140Z,0
2022-10-09T15:18:25.133Z,0
2022-10-09T15:19:25.150Z,0
2022-10-09T15:20:25.137Z,0
2022-10-09T15:21:25.167Z,0
2022-10-09T15:22:25.151Z,0
2022-10-09T15:23:25.140Z,0